Arapahoe, Wyoming
Current Conditions -  °F | °C
As of 11:53 PM on Wednesday 17 Dec 2014 (Local Time) from KRIW Reporting Station
Haze Haze  
Wind Chill: -11°   Ceiling: 100
Heat Index: -11°   Visibility: 0.25mi
Dew Point: -13°   Wind: 0mph
Humidity: 81%   Direction: NA
Pressure: 29.99"   Gusts: NA
Location:  42.96°N, 108.49°W
Report Text: KRIW 180653Z AUTO 00000KT 1/4SM HZ VV001 M11/M13 A2999 RMK AO2 SLP219 T11061133 410721106
Loading
Personal Weather Stations






























Interactive Weather Map New forecast layout! Learn more

10-Day Weather Forecast

Advertisements
Track Severe Weather on mobile